sensor_id;sensor_type;location;lat;lon;timestamp;P1;durP1;ratioP1;P2;durP2;ratioP2
42670;SDS011;28283;55.426;37.756;2023-01-31T00:03:52;5.75;;;3.72;;
42670;SDS011;28283;55.426;37.756;2023-01-31T00:08:55;5.55;;;4.55;;
42670;SDS011;28283;55.426;37.756;2023-01-31T00:13:57;7.03;;;5.05;;
42670;SDS011;28283;55.426;37.756;2023-01-31T00:18:59;5.05;;;3.83;;
42670;SDS011;28283;55.426;37.756;2023-01-31T00:24:00;5.47;;;3.17;;
42670;SDS011;28283;55.426;37.756;2023-01-31T00:41:25;6.55;;;5.32;;
42670;SDS011;28283;55.426;37.756;2023-01-31T00:46:28;5.43;;;3.25;;
42670;SDS011;28283;55.426;37.756;2023-01-31T00:51:29;7.43;;;5.05;;
42670;SDS011;28283;55.426;37.756;2023-01-31T00:56:30;6.55;;;4.63;;
42670;SDS011;28283;55.426;37.756;2023-01-31T01:01:30;6.10;;;3.65;;
42670;SDS011;28283;55.426;37.756;2023-01-31T01:11:32;5.18;;;3.58;;
42670;SDS011;28283;55.426;37.756;2023-01-31T01:16:35;4.68;;;3.47;;
42670;SDS011;28283;55.426;37.756;2023-01-31T01:21:37;8.38;;;6.15;;
42670;SDS011;28283;55.426;37.756;2023-01-31T01:26:39;6.50;;;5.13;;
42670;SDS011;28283;55.426;37.756;2023-01-31T01:31:40;7.97;;;5.82;;
42670;SDS011;28283;55.426;37.756;2023-01-31T01:36:41;11.10;;;5.97;;
42670;SDS011;28283;55.426;37.756;2023-01-31T01:46:42;10.55;;;6.93;;
42670;SDS011;28283;55.426;37.756;2023-01-31T01:51:45;7.05;;;4.93;;
42670;SDS011;28283;55.426;37.756;2023-01-31T01:56:48;7.50;;;5.55;;
42670;SDS011;28283;55.426;37.756;2023-01-31T02:01:53;6.53;;;5.18;;
42670;SDS011;28283;55.426;37.756;2023-01-31T02:06:55;11.20;;;7.53;;
42670;SDS011;28283;55.426;37.756;2023-01-31T02:16:58;8.77;;;4.93;;
42670;SDS011;28283;55.426;37.756;2023-01-31T02:53:32;5.40;;;4.03;;
42670;SDS011;28283;55.426;37.756;2023-01-31T02:58:36;6.68;;;4.78;;
42670;SDS011;28283;55.426;37.756;2023-01-31T03:03:38;6.32;;;4.88;;
42670;SDS011;28283;55.426;37.756;2023-01-31T03:08:40;6.93;;;5.07;;
42670;SDS011;28283;55.426;37.756;2023-01-31T03:13:45;6.53;;;5.25;;
42670;SDS011;28283;55.426;37.756;2023-01-31T03:19:31;6.95;;;5.40;;
42670;SDS011;28283;55.426;37.756;2023-01-31T03:24:37;8.80;;;5.88;;
42670;SDS011;28283;55.426;37.756;2023-01-31T03:29:40;10.32;;;5.97;;
42670;SDS011;28283;55.426;37.756;2023-01-31T03:34:42;7.75;;;6.55;;
42670;SDS011;28283;55.426;37.756;2023-01-31T03:45:03;9.90;;;5.90;;
42670;SDS011;28283;55.426;37.756;2023-01-31T03:55:18;7.25;;;5.13;;
42670;SDS011;28283;55.426;37.756;2023-01-31T04:00:22;10.07;;;6.88;;
42670;SDS011;28283;55.426;37.756;2023-01-31T04:05:25;7.97;;;5.78;;
42670;SDS011;28283;55.426;37.756;2023-01-31T04:10:30;7.68;;;6.00;;
42670;SDS011;28283;55.426;37.756;2023-01-31T04:15:31;9.73;;;6.80;;
42670;SDS011;28283;55.426;37.756;2023-01-31T04:25:32;7.10;;;4.25;;
42670;SDS011;28283;55.426;37.756;2023-01-31T04:30:33;8.07;;;6.80;;
42670;SDS011;28283;55.426;37.756;2023-01-31T04:35:34;9.05;;;5.47;;
42670;SDS011;28283;55.426;37.756;2023-01-31T04:40:34;8.93;;;6.22;;
42670;SDS011;28283;55.426;37.756;2023-01-31T04:45:35;5.32;;;4.68;;
42670;SDS011;28283;55.426;37.756;2023-01-31T04:50:35;8.25;;;6.05;;
42670;SDS011;28283;55.426;37.756;2023-01-31T04:55:36;9.55;;;6.57;;
42670;SDS011;28283;55.426;37.756;2023-01-31T05:00:37;7.35;;;5.80;;
42670;SDS011;28283;55.426;37.756;2023-01-31T05:05:37;9.95;;;6.85;;
42670;SDS011;28283;55.426;37.756;2023-01-31T05:10:39;10.23;;;6.68;;
42670;SDS011;28283;55.426;37.756;2023-01-31T05:15:40;6.97;;;5.30;;
42670;SDS011;28283;55.426;37.756;2023-01-31T05:20:40;10.50;;;6.82;;
42670;SDS011;28283;55.426;37.756;2023-01-31T05:25:42;8.13;;;5.18;;
42670;SDS011;28283;55.426;37.756;2023-01-31T05:30:43;7.28;;;5.75;;
42670;SDS011;28283;55.426;37.756;2023-01-31T05:35:44;9.57;;;6.22;;
42670;SDS011;28283;55.426;37.756;2023-01-31T05:45:46;8.65;;;6.55;;
42670;SDS011;28283;55.426;37.756;2023-01-31T05:50:48;9.25;;;6.70;;
42670;SDS011;28283;55.426;37.756;2023-01-31T05:55:49;7.85;;;5.47;;
42670;SDS011;28283;55.426;37.756;2023-01-31T06:00:53;8.43;;;5.68;;
42670;SDS011;28283;55.426;37.756;2023-01-31T06:05:55;6.88;;;4.75;;
42670;SDS011;28283;55.426;37.756;2023-01-31T06:10:56;8.75;;;6.53;;
42670;SDS011;28283;55.426;37.756;2023-01-31T06:20:57;7.85;;;5.65;;
42670;SDS011;28283;55.426;37.756;2023-01-31T06:25:58;8.35;;;5.38;;
42670;SDS011;28283;55.426;37.756;2023-01-31T06:31:04;7.82;;;6.10;;
42670;SDS011;28283;55.426;37.756;2023-01-31T06:36:06;6.40;;;5.25;;
42670;SDS011;28283;55.426;37.756;2023-01-31T06:46:07;6.07;;;4.65;;
42670;SDS011;28283;55.426;37.756;2023-01-31T06:51:08;7.20;;;5.05;;
42670;SDS011;28283;55.426;37.756;2023-01-31T06:56:09;8.05;;;5.80;;
42670;SDS011;28283;55.426;37.756;2023-01-31T07:01:12;6.53;;;4.68;;
42670;SDS011;28283;55.426;37.756;2023-01-31T07:06:14;6.68;;;4.82;;
42670;SDS011;28283;55.426;37.756;2023-01-31T07:11:14;6.88;;;5.13;;
42670;SDS011;28283;55.426;37.756;2023-01-31T07:16:15;6.65;;;5.32;;
42670;SDS011;28283;55.426;37.756;2023-01-31T07:21:17;6.28;;;4.47;;
42670;SDS011;28283;55.426;37.756;2023-01-31T07:26:23;9.77;;;6.50;;
42670;SDS011;28283;55.426;37.756;2023-01-31T07:31:38;8.35;;;6.03;;
42670;SDS011;28283;55.426;37.756;2023-01-31T07:36:42;8.80;;;6.28;;
42670;SDS011;28283;55.426;37.756;2023-01-31T07:41:47;10.70;;;6.47;;
42670;SDS011;28283;55.426;37.756;2023-01-31T07:46:48;10.18;;;7.00;;
42670;SDS011;28283;55.426;37.756;2023-01-31T07:51:48;12.93;;;7.97;;
42670;SDS011;28283;55.426;37.756;2023-01-31T07:56:49;11.25;;;7.32;;
42670;SDS011;28283;55.426;37.756;2023-01-31T08:01:50;10.48;;;6.88;;
42670;SDS011;28283;55.426;37.756;2023-01-31T08:07:09;10.60;;;6.75;;
42670;SDS011;28283;55.426;37.756;2023-01-31T08:12:11;10.35;;;7.05;;
42670;SDS011;28283;55.426;37.756;2023-01-31T08:17:12;8.00;;;6.60;;
42670;SDS011;28283;55.426;37.756;2023-01-31T08:22:12;10.63;;;6.30;;
42670;SDS011;28283;55.426;37.756;2023-01-31T08:27:13;10.30;;;6.85;;
42670;SDS011;28283;55.426;37.756;2023-01-31T08:32:14;10.23;;;6.03;;
42670;SDS011;28283;55.426;37.756;2023-01-31T08:37:14;5.28;;;4.50;;
42670;SDS011;28283;55.426;37.756;2023-01-31T08:42:15;11.07;;;7.75;;
42670;SDS011;28283;55.426;37.756;2023-01-31T08:47:16;10.27;;;7.47;;
42670;SDS011;28283;55.426;37.756;2023-01-31T08:52:16;8.98;;;6.10;;
42670;SDS011;28283;55.426;37.756;2023-01-31T08:57:36;9.30;;;6.20;;
42670;SDS011;28283;55.426;37.756;2023-01-31T09:02:36;9.02;;;6.15;;
42670;SDS011;28283;55.426;37.756;2023-01-31T09:07:37;7.65;;;6.05;;
42670;SDS011;28283;55.426;37.756;2023-01-31T09:12:41;8.05;;;6.13;;
42670;SDS011;28283;55.426;37.756;2023-01-31T09:18:11;9.82;;;6.57;;
42670;SDS011;28283;55.426;37.756;2023-01-31T09:23:28;8.40;;;6.50;;
42670;SDS011;28283;55.426;37.756;2023-01-31T09:28:34;10.18;;;6.97;;
42670;SDS011;28283;55.426;37.756;2023-01-31T09:33:42;10.77;;;7.72;;
42670;SDS011;28283;55.426;37.756;2023-01-31T09:43:47;9.30;;;6.60;;
42670;SDS011;28283;55.426;37.756;2023-01-31T09:49:21;11.88;;;6.93;;
42670;SDS011;28283;55.426;37.756;2023-01-31T09:54:49;9.85;;;6.78;;
42670;SDS011;28283;55.426;37.756;2023-01-31T10:00:26;9.32;;;6.85;;
42670;SDS011;28283;55.426;37.756;2023-01-31T10:10:51;10.13;;;7.68;;
42670;SDS011;28283;55.426;37.756;2023-01-31T10:15:59;6.57;;;4.88;;
42670;SDS011;28283;55.426;37.756;2023-01-31T10:21:19;10.20;;;7.10;;
42670;SDS011;28283;55.426;37.756;2023-01-31T10:26:43;8.52;;;6.32;;
42670;SDS011;28283;55.426;37.756;2023-01-31T10:37:39;6.22;;;3.80;;
42670;SDS011;28283;55.426;37.756;2023-01-31T21:15:56;36.78;;;14.32;;
42670;SDS011;28283;55.426;37.756;2023-01-31T21:21:01;23.15;;;12.45;;
42670;SDS011;28283;55.426;37.756;2023-01-31T21:26:06;24.25;;;12.70;;
42670;SDS011;28283;55.426;37.756;2023-01-31T21:31:09;22.92;;;12.90;;
42670;SDS011;28283;55.426;37.756;2023-01-31T21:36:16;30.10;;;14.27;;
42670;SDS011;28283;55.426;37.756;2023-01-31T21:41:19;23.67;;;13.98;;
42670;SDS011;28283;55.426;37.756;2023-01-31T21:46:38;23.65;;;14.25;;
42670;SDS011;28283;55.426;37.756;2023-01-31T21:51:39;19.52;;;11.10;;
42670;SDS011;28283;55.426;37.756;2023-01-31T21:56:40;25.38;;;13.05;;
42670;SDS011;28283;55.426;37.756;2023-01-31T22:01:41;23.00;;;12.93;;
42670;SDS011;28283;55.426;37.756;2023-01-31T22:06:41;24.52;;;13.00;;
42670;SDS011;28283;55.426;37.756;2023-01-31T22:11:42;19.03;;;10.73;;
42670;SDS011;28283;55.426;37.756;2023-01-31T22:16:43;22.85;;;13.07;;
42670;SDS011;28283;55.426;37.756;2023-01-31T22:21:44;24.98;;;14.43;;
42670;SDS011;28283;55.426;37.756;2023-01-31T22:26:44;23.80;;;12.25;;
42670;SDS011;28283;55.426;37.756;2023-01-31T22:31:45;22.25;;;11.55;;
42670;SDS011;28283;55.426;37.756;2023-01-31T22:36:46;23.35;;;13.90;;
42670;SDS011;28283;55.426;37.756;2023-01-31T22:41:46;22.67;;;13.55;;
42670;SDS011;28283;55.426;37.756;2023-01-31T22:46:47;19.67;;;11.98;;
42670;SDS011;28283;55.426;37.756;2023-01-31T22:51:47;16.10;;;10.33;;
42670;SDS011;28283;55.426;37.756;2023-01-31T22:56:48;25.67;;;13.68;;
42670;SDS011;28283;55.426;37.756;2023-01-31T23:01:49;21.77;;;12.18;;
42670;SDS011;28283;55.426;37.756;2023-01-31T23:06:49;20.47;;;11.73;;
42670;SDS011;28283;55.426;37.756;2023-01-31T23:11:50;20.48;;;11.38;;
42670;SDS011;28283;55.426;37.756;2023-01-31T23:16:51;21.98;;;12.90;;
42670;SDS011;28283;55.426;37.756;2023-01-31T23:22:10;24.30;;;13.18;;
42670;SDS011;28283;55.426;37.756;2023-01-31T23:27:13;27.38;;;14.45;;
42670;SDS011;28283;55.426;37.756;2023-01-31T23:32:14;23.45;;;11.95;;
42670;SDS011;28283;55.426;37.756;2023-01-31T23:37:15;24.43;;;13.60;;
42670;SDS011;28283;55.426;37.756;2023-01-31T23:47:16;19.73;;;10.95;;
42670;SDS011;28283;55.426;37.756;2023-01-31T23:52:17;24.67;;;13.30;;
42670;SDS011;28283;55.426;37.756;2023-01-31T23:57:17;23.85;;;13.35;;
